sensor_id;sensor_type;location;lat;lon;timestamp;pressure;altitude;pressure_sealevel;temperature;humidity
59409;BME280;45213;32.654;-115.458;2023-02-26T00:00:09;101127.94;;;14.55;44.57
59409;BME280;45213;32.654;-115.458;2023-02-26T00:02:43;101120.09;;;14.63;44.39
59409;BME280;45213;32.654;-115.458;2023-02-26T00:05:14;101127.06;;;14.55;43.45
59409;BME280;45213;32.654;-115.458;2023-02-26T00:07:41;101122.69;;;14.48;43.27
59409;BME280;45213;32.654;-115.458;2023-02-26T00:10:10;101133.19;;;14.48;43.24
59409;BME280;45213;32.654;-115.458;2023-02-26T00:12:37;101142.78;;;14.43;42.57
59409;BME280;45213;32.654;-115.458;2023-02-26T00:15:05;101151.53;;;14.38;42.67
59409;BME280;45213;32.654;-115.458;2023-02-26T00:18:06;101154.13;;;14.41;43.96
59409;BME280;45213;32.654;-115.458;2023-02-26T00:20:34;101161.13;;;14.30;45.40
59409;BME280;45213;32.654;-115.458;2023-02-26T00:23:01;101174.25;;;14.15;44.90
59409;BME280;45213;32.654;-115.458;2023-02-26T00:25:28;101164.63;;;14.05;44.27
59409;BME280;45213;32.654;-115.458;2023-02-26T00:27:55;101166.38;;;14.10;44.03
59409;BME280;45213;32.654;-115.458;2023-02-26T00:30:22;101155.03;;;14.08;45.74
59409;BME280;45213;32.654;-115.458;2023-02-26T00:32:49;101147.16;;;13.97;49.00
59409;BME280;45213;32.654;-115.458;2023-02-26T00:35:16;101140.19;;;13.81;50.77
59409;BME280;45213;32.654;-115.458;2023-02-26T00:38:09;101148.84;;;13.65;50.16
59409;BME280;45213;32.654;-115.458;2023-02-26T00:40:44;101145.38;;;13.75;48.95
59409;BME280;45213;32.654;-115.458;2023-02-26T00:43:20;101148.00;;;13.79;47.76
59409;BME280;45213;32.654;-115.458;2023-02-26T00:45:57;101144.53;;;13.84;48.24
59409;BME280;45213;32.654;-115.458;2023-02-26T00:49:06;101152.34;;;13.71;56.45
59409;BME280;45213;32.654;-115.458;2023-02-26T00:51:58;101164.47;;;13.31;59.31
59409;BME280;45213;32.654;-115.458;2023-02-26T00:54:28;101171.38;;;13.23;57.53
59409;BME280;45213;32.654;-115.458;2023-02-26T00:56:56;101169.63;;;13.23;56.68
59409;BME280;45213;32.654;-115.458;2023-02-26T00:59:24;101160.00;;;13.21;56.13
59409;BME280;45213;32.654;-115.458;2023-02-26T01:01:51;101146.03;;;13.09;56.11
59409;BME280;45213;32.654;-115.458;2023-02-26T01:04:21;101146.06;;;13.19;56.22
59409;BME280;45213;32.654;-115.458;2023-02-26T01:06:54;101145.19;;;13.16;56.60
59409;BME280;45213;32.654;-115.458;2023-02-26T01:09:31;101134.72;;;13.13;56.39
59409;BME280;45213;32.654;-115.458;2023-02-26T01:12:07;101166.09;;;13.10;56.49
59409;BME280;45213;32.654;-115.458;2023-02-26T01:14:35;101163.47;;;13.10;56.46
59409;BME280;45213;32.654;-115.458;2023-02-26T01:17:43;101182.75;;;13.32;57.73
59409;BME280;45213;32.654;-115.458;2023-02-26T01:20:17;101186.34;;;13.51;55.66
59409;BME280;45213;32.654;-115.458;2023-02-26T01:22:49;101168.84;;;13.33;54.70
59409;BME280;45213;32.654;-115.458;2023-02-26T01:25:23;101181.81;;;13.21;56.43
59409;BME280;45213;32.654;-115.458;2023-02-26T01:27:52;101133.88;;;13.22;57.12
59409;BME280;45213;32.654;-115.458;2023-02-26T01:30:19;101132.09;;;13.09;60.04
59409;BME280;45213;32.654;-115.458;2023-02-26T01:32:59;101160.78;;;12.98;60.96
59409;BME280;45213;32.654;-115.458;2023-02-26T01:35:53;101176.50;;;13.03;61.51
59409;BME280;45213;32.654;-115.458;2023-02-26T01:49:12;101192.16;;;12.98;56.38
59409;BME280;45213;32.654;-115.458;2023-02-26T01:51:46;101211.28;;;12.88;57.54
59409;BME280;45213;32.654;-115.458;2023-02-26T01:54:16;101207.78;;;12.92;57.91
59409;BME280;45213;32.654;-115.458;2023-02-26T01:56:43;101203.47;;;12.99;58.28
59409;BME280;45213;32.654;-115.458;2023-02-26T01:59:14;101220.06;;;12.99;58.98
59409;BME280;45213;32.654;-115.458;2023-02-26T02:01:42;101233.06;;;12.91;59.80
59409;BME280;45213;32.654;-115.458;2023-02-26T02:04:12;101226.91;;;12.79;61.01
59409;BME280;45213;32.654;-115.458;2023-02-26T02:06:41;101226.97;;;12.88;61.67
59409;BME280;45213;32.654;-115.458;2023-02-26T02:09:09;101226.03;;;12.83;63.42
59409;BME280;45213;32.654;-115.458;2023-02-26T02:11:45;101217.38;;;12.88;63.81
59409;BME280;45213;32.654;-115.458;2023-02-26T02:14:20;101206.00;;;12.82;64.09
59409;BME280;45213;32.654;-115.458;2023-02-26T02:16:58;101204.22;;;12.81;65.01
59409;BME280;45213;32.654;-115.458;2023-02-26T02:27:55;101237.22;;;12.63;67.36
59409;BME280;45213;32.654;-115.458;2023-02-26T02:33:22;101209.13;;;12.35;64.29
59409;BME280;45213;32.654;-115.458;2023-02-26T02:36:12;101209.97;;;12.32;62.27
59409;BME280;45213;32.654;-115.458;2023-02-26T02:38:54;101209.94;;;12.30;57.78
59409;BME280;45213;32.654;-115.458;2023-02-26T02:41:36;101195.25;;;12.42;53.86
59409;BME280;45213;32.654;-115.458;2023-02-26T02:44:05;101198.84;;;12.54;51.71
59409;BME280;45213;32.654;-115.458;2023-02-26T02:46:35;101206.69;;;12.58;48.58
59409;BME280;45213;32.654;-115.458;2023-02-26T02:49:06;101206.81;;;12.76;44.66
59409;BME280;45213;32.654;-115.458;2023-02-26T02:51:43;101206.84;;;12.78;45.77
59409;BME280;45213;32.654;-115.458;2023-02-26T02:54:41;101212.00;;;12.65;45.64
59409;BME280;45213;32.654;-115.458;2023-02-26T02:59:55;101210.25;;;12.69;45.17
59409;BME280;45213;32.654;-115.458;2023-02-26T03:02:35;101219.91;;;12.74;44.82
59409;BME280;45213;32.654;-115.458;2023-02-26T03:05:05;101219.94;;;12.79;45.09
59409;BME280;45213;32.654;-115.458;2023-02-26T03:07:35;101222.53;;;12.79;44.63
59409;BME280;45213;32.654;-115.458;2023-02-26T03:10:04;101230.34;;;12.78;44.82
59409;BME280;45213;32.654;-115.458;2023-02-26T03:12:31;101232.09;;;12.75;44.80
59409;BME280;45213;32.654;-115.458;2023-02-26T03:14:59;101247.75;;;12.75;44.91
59409;BME280;45213;32.654;-115.458;2023-02-26T03:17:35;101244.25;;;12.73;46.74
59409;BME280;45213;32.654;-115.458;2023-02-26T03:20:25;101259.03;;;12.68;47.13
59409;BME280;45213;32.654;-115.458;2023-02-26T03:33:53;101291.25;;;12.67;49.87
59409;BME280;45213;32.654;-115.458;2023-02-26T03:36:33;101299.88;;;12.60;52.92
59409;BME280;45213;32.654;-115.458;2023-02-26T03:39:40;101299.88;;;12.60;53.83
59409;BME280;45213;32.654;-115.458;2023-02-26T03:42:09;101300.66;;;12.48;54.72
59409;BME280;45213;32.654;-115.458;2023-02-26T03:45:00;101302.38;;;12.45;55.92
59409;BME280;45213;32.654;-115.458;2023-02-26T03:47:28;101300.78;;;12.61;57.05
59409;BME280;45213;32.654;-115.458;2023-02-26T03:50:04;101303.50;;;12.74;58.99
59409;BME280;45213;32.654;-115.458;2023-02-26T03:52:42;101302.63;;;12.75;57.37
59409;BME280;45213;32.654;-115.458;2023-02-26T03:55:25;101302.53;;;12.65;56.49
59409;BME280;45213;32.654;-115.458;2023-02-26T03:58:15;101300.63;;;12.45;57.28
59409;BME280;45213;32.654;-115.458;2023-02-26T04:00:58;101310.09;;;12.34;57.34
59409;BME280;45213;32.654;-115.458;2023-02-26T04:03:40;101312.66;;;12.29;58.21
59409;BME280;45213;32.654;-115.458;2023-02-26T04:06:10;101315.22;;;12.23;58.61
59409;BME280;45213;32.654;-115.458;2023-02-26T04:08:38;101335.16;;;12.15;58.65
59409;BME280;45213;32.654;-115.458;2023-02-26T04:11:05;101336.91;;;12.18;58.95
59409;BME280;45213;32.654;-115.458;2023-02-26T04:13:33;101344.66;;;12.10;58.98
59409;BME280;45213;32.654;-115.458;2023-02-26T04:16:01;101348.94;;;12.05;60.08
59409;BME280;45213;32.654;-115.458;2023-02-26T04:18:28;101338.44;;;12.00;60.69
59409;BME280;45213;32.654;-115.458;2023-02-26T04:20:55;101349.75;;;12.01;61.00
59409;BME280;45213;32.654;-115.458;2023-02-26T04:23:21;101357.53;;;11.96;61.39
59409;BME280;45213;32.654;-115.458;2023-02-26T04:25:48;101363.69;;;12.00;61.41
59409;BME280;45213;32.654;-115.458;2023-02-26T04:28:15;101363.56;;;11.90;62.06
59409;BME280;45213;32.654;-115.458;2023-02-26T04:30:42;101370.44;;;11.85;62.74
59409;BME280;45213;32.654;-115.458;2023-02-26T04:33:12;101367.75;;;11.82;62.65
59409;BME280;45213;32.654;-115.458;2023-02-26T04:35:39;101374.66;;;11.77;62.99
59409;BME280;45213;32.654;-115.458;2023-02-26T04:38:06;101378.09;;;11.75;63.53
59409;BME280;45213;32.654;-115.458;2023-02-26T04:40:33;101384.16;;;11.72;63.12
59409;BME280;45213;32.654;-115.458;2023-02-26T04:43:00;101382.03;;;11.46;61.33
59409;BME280;45213;32.654;-115.458;2023-02-26T04:45:31;101379.41;;;11.43;58.70
59409;BME280;45213;32.654;-115.458;2023-02-26T04:47:57;101381.97;;;11.40;56.78
59409;BME280;45213;32.654;-115.458;2023-02-26T04:50:24;101384.56;;;11.40;56.25
59409;BME280;45213;32.654;-115.458;2023-02-26T04:52:52;101383.75;;;11.44;57.29
59409;BME280;45213;32.654;-115.458;2023-02-26T04:55:19;101385.41;;;11.39;56.66
59409;BME280;45213;32.654;-115.458;2023-02-26T04:57:46;101387.78;;;11.22;52.04
59409;BME280;45213;32.654;-115.458;2023-02-26T05:00:13;101380.75;;;11.18;45.29
59409;BME280;45213;32.654;-115.458;2023-02-26T05:02:41;101379.97;;;11.25;43.37
59409;BME280;45213;32.654;-115.458;2023-02-26T05:05:08;101386.22;;;11.34;40.88
59409;BME280;45213;32.654;-115.458;2023-02-26T05:07:34;101385.25;;;11.28;39.66
59409;BME280;45213;32.654;-115.458;2023-02-26T05:10:01;101383.53;;;11.29;39.34
59409;BME280;45213;32.654;-115.458;2023-02-26T05:12:27;101383.44;;;11.23;39.34
59409;BME280;45213;32.654;-115.458;2023-02-26T05:14:54;101394.81;;;11.29;38.89
59409;BME280;45213;32.654;-115.458;2023-02-26T05:17:20;101398.28;;;11.28;38.87
59409;BME280;45213;32.654;-115.458;2023-02-26T05:19:48;101390.44;;;11.27;38.23
59409;BME280;45213;32.654;-115.458;2023-02-26T05:22:15;101390.44;;;11.28;37.96
59409;BME280;45213;32.654;-115.458;2023-02-26T05:24:42;101391.28;;;11.24;37.77
59409;BME280;45213;32.654;-115.458;2023-02-26T05:27:09;101394.00;;;11.32;37.47
59409;BME280;45213;32.654;-115.458;2023-02-26T05:29:41;101395.69;;;11.30;37.61
59409;BME280;45213;32.654;-115.458;2023-02-26T05:32:12;101403.56;;;11.33;37.66
59409;BME280;45213;32.654;-115.458;2023-02-26T05:34:39;101404.53;;;11.38;37.09
59409;BME280;45213;32.654;-115.458;2023-02-26T05:37:05;101409.81;;;11.43;36.45
59409;BME280;45213;32.654;-115.458;2023-02-26T05:39:32;101411.59;;;11.45;36.63
59409;BME280;45213;32.654;-115.458;2023-02-26T05:41:58;101412.47;;;11.46;37.22
59409;BME280;45213;32.654;-115.458;2023-02-26T05:44:25;101420.25;;;11.44;37.77
59409;BME280;45213;32.654;-115.458;2023-02-26T05:46:53;101423.63;;;11.36;37.37
59409;BME280;45213;32.654;-115.458;2023-02-26T05:49:20;101425.28;;;11.32;37.43
59409;BME280;45213;32.654;-115.458;2023-02-26T05:51:46;101417.34;;;11.26;37.90
59409;BME280;45213;32.654;-115.458;2023-02-26T05:54:13;101425.25;;;11.29;38.16
59409;BME280;45213;32.654;-115.458;2023-02-26T05:56:40;101415.72;;;11.31;37.82
59409;BME280;45213;32.654;-115.458;2023-02-26T05:59:06;101420.69;;;11.16;37.88
59409;BME280;45213;32.654;-115.458;2023-02-26T06:01:33;101428.50;;;11.16;38.57
59409;BME280;45213;32.654;-115.458;2023-02-26T06:04:00;101438.81;;;11.10;38.77
59409;BME280;45213;32.654;-115.458;2023-02-26T06:06:26;101434.38;;;11.04;39.04
59409;BME280;45213;32.654;-115.458;2023-02-26T06:08:53;101440.75;;;11.21;40.27
59409;BME280;45213;32.654;-115.458;2023-02-26T06:11:20;101452.91;;;11.21;41.49
59409;BME280;45213;32.654;-115.458;2023-02-26T06:13:47;101446.59;;;11.06;43.12
59409;BME280;45213;32.654;-115.458;2023-02-26T06:16:14;101446.50;;;11.02;42.38
59409;BME280;45213;32.654;-115.458;2023-02-26T06:18:41;101450.81;;;11.00;42.22
59409;BME280;45213;32.654;-115.458;2023-02-26T06:21:07;101450.03;;;11.05;42.88
59409;BME280;45213;32.654;-115.458;2023-02-26T06:23:34;101450.72;;;10.97;44.60
59409;BME280;45213;32.654;-115.458;2023-02-26T06:26:01;101455.78;;;10.86;43.72
59409;BME280;45213;32.654;-115.458;2023-02-26T06:28:28;101449.69;;;10.85;43.85
59409;BME280;45213;32.654;-115.458;2023-02-26T06:30:54;101454.91;;;10.85;43.41
59409;BME280;45213;32.654;-115.458;2023-02-26T06:33:21;101450.50;;;10.83;42.93
59409;BME280;45213;32.654;-115.458;2023-02-26T06:35:48;101442.59;;;10.78;42.61
59409;BME280;45213;32.654;-115.458;2023-02-26T06:38:15;101433.94;;;10.79;43.61
59409;BME280;45213;32.654;-115.458;2023-02-26T06:40:42;101442.50;;;10.72;44.40
59409;BME280;45213;32.654;-115.458;2023-02-26T06:43:09;101458.66;;;10.56;44.54
59409;BME280;45213;32.654;-115.458;2023-02-26T06:45:36;101467.19;;;10.49;44.04
59409;BME280;45213;32.654;-115.458;2023-02-26T06:48:04;101466.19;;;10.40;45.63
59409;BME280;45213;32.654;-115.458;2023-02-26T06:50:30;101468.75;;;10.39;46.15
59409;BME280;45213;32.654;-115.458;2023-02-26T06:52:57;101468.53;;;10.30;47.50
59409;BME280;45213;32.654;-115.458;2023-02-26T06:55:24;101470.00;;;10.18;47.33
59409;BME280;45213;32.654;-115.458;2023-02-26T06:57:53;101455.34;;;10.22;47.00
59409;BME280;45213;32.654;-115.458;2023-02-26T07:00:20;101453.66;;;10.25;46.34
59409;BME280;45213;32.654;-115.458;2023-02-26T07:02:47;101459.66;;;10.21;46.81
59409;BME280;45213;32.654;-115.458;2023-02-26T07:05:13;101458.47;;;10.07;46.43
59409;BME280;45213;32.654;-115.458;2023-02-26T07:07:40;101455.16;;;10.14;46.87
59409;BME280;45213;32.654;-115.458;2023-02-26T07:10:08;101456.03;;;10.13;47.76
59409;BME280;45213;32.654;-115.458;2023-02-26T07:12:35;101448.03;;;10.06;48.08
59409;BME280;45213;32.654;-115.458;2023-02-26T07:15:07;101446.34;;;10.06;47.80
59409;BME280;45213;32.654;-115.458;2023-02-26T07:17:34;101452.38;;;10.05;47.94
59409;BME280;45213;32.654;-115.458;2023-02-26T07:20:00;101461.66;;;9.94;47.81
59409;BME280;45213;32.654;-115.458;2023-02-26T07:22:31;101471.25;;;9.95;47.96
59409;BME280;45213;32.654;-115.458;2023-02-26T07:24:58;101465.94;;;9.92;48.79
59409;BME280;45213;32.654;-115.458;2023-02-26T07:27:25;101480.78;;;9.96;48.89
59409;BME280;45213;32.654;-115.458;2023-02-26T07:29:52;101486.03;;;9.97;48.52
59409;BME280;45213;32.654;-115.458;2023-02-26T07:32:19;101485.00;;;9.91;48.57
59409;BME280;45213;32.654;-115.458;2023-02-26T07:34:45;101490.22;;;9.91;48.32
59409;BME280;45213;32.654;-115.458;2023-02-26T07:37:12;101489.28;;;9.89;48.34
59409;BME280;45213;32.654;-115.458;2023-02-26T07:39:39;101489.28;;;9.89;49.11
59409;BME280;45213;32.654;-115.458;2023-02-26T07:42:05;101493.72;;;9.93;49.42
59409;BME280;45213;32.654;-115.458;2023-02-26T07:44:32;101506.47;;;9.82;49.85
59409;BME280;45213;32.654;-115.458;2023-02-26T07:46:59;101507.94;;;9.71;49.90
59409;BME280;45213;32.654;-115.458;2023-02-26T07:49:26;101517.31;;;9.64;50.26
59409;BME280;45213;32.654;-115.458;2023-02-26T07:51:52;101521.53;;;9.59;50.44
59409;BME280;45213;32.654;-115.458;2023-02-26T07:54:19;101520.63;;;9.57;49.98
59409;BME280;45213;32.654;-115.458;2023-02-26T07:56:46;101512.41;;;9.41;50.28
59409;BME280;45213;32.654;-115.458;2023-02-26T07:59:12;101516.06;;;9.48;50.50
59409;BME280;45213;32.654;-115.458;2023-02-26T08:01:39;101525.81;;;9.57;49.92
59409;BME280;45213;32.654;-115.458;2023-02-26T08:04:05;101533.00;;;9.67;49.99
59409;BME280;45213;32.654;-115.458;2023-02-26T08:06:32;101542.44;;;9.64;48.78
59409;BME280;45213;32.654;-115.458;2023-02-26T08:09:01;101535.78;;;9.75;47.94
59409;BME280;45213;32.654;-115.458;2023-02-26T08:11:27;101528.16;;;9.82;48.59
59409;BME280;45213;32.654;-115.458;2023-02-26T08:13:54;101530.59;;;9.76;49.10
59409;BME280;45213;32.654;-115.458;2023-02-26T08:16:20;101531.81;;;9.54;51.00
59409;BME280;45213;32.654;-115.458;2023-02-26T08:18:47;101540.09;;;9.39;49.90
59409;BME280;45213;32.654;-115.458;2023-02-26T08:21:14;101535.13;;;9.47;49.94
59409;BME280;45213;32.654;-115.458;2023-02-26T08:23:40;101531.00;;;9.57;50.75
59409;BME280;45213;32.654;-115.458;2023-02-26T08:26:09;101531.53;;;9.44;50.89
59409;BME280;45213;32.654;-115.458;2023-02-26T08:28:37;101527.34;;;9.49;50.69
59409;BME280;45213;32.654;-115.458;2023-02-26T08:31:04;101533.00;;;9.67;51.11
59409;BME280;45213;32.654;-115.458;2023-02-26T08:33:32;101547.69;;;9.65;51.31
59409;BME280;45213;32.654;-115.458;2023-02-26T08:35:58;101560.00;;;9.72;51.00
59409;BME280;45213;32.654;-115.458;2023-02-26T08:38:27;101553.03;;;9.70;51.13
59409;BME280;45213;32.654;-115.458;2023-02-26T08:40:54;101552.09;;;9.68;51.55
59409;BME280;45213;32.654;-115.458;2023-02-26T08:43:21;101560.00;;;9.72;51.23
59409;BME280;45213;32.654;-115.458;2023-02-26T08:45:51;101560.81;;;9.70;50.76
59409;BME280;45213;32.654;-115.458;2023-02-26T08:48:19;101561.56;;;9.66;50.08
59409;BME280;45213;32.654;-115.458;2023-02-26T08:50:45;101555.41;;;9.62;52.49
59409;BME280;45213;32.654;-115.458;2023-02-26T08:53:12;101545.56;;;9.83;52.79
59409;BME280;45213;32.654;-115.458;2023-02-26T08:55:39;101540.69;;;9.99;53.79
59409;BME280;45213;32.654;-115.458;2023-02-26T08:58:05;101541.69;;;10.04;54.07
59409;BME280;45213;32.654;-115.458;2023-02-26T09:00:33;101548.75;;;10.10;53.94
59409;BME280;45213;32.654;-115.458;2023-02-26T09:02:59;101536.28;;;9.96;52.73
59409;BME280;45213;32.654;-115.458;2023-02-26T09:05:26;101533.03;;;10.05;51.88
59409;BME280;45213;32.654;-115.458;2023-02-26T09:07:53;101540.31;;;10.20;51.78
59409;BME280;45213;32.654;-115.458;2023-02-26T09:10:19;101537.88;;;10.28;52.12
59409;BME280;45213;32.654;-115.458;2023-02-26T09:12:46;101553.59;;;10.31;52.74
59409;BME280;45213;32.654;-115.458;2023-02-26T09:15:13;101582.91;;;10.23;53.30
59409;BME280;45213;32.654;-115.458;2023-02-26T09:17:40;101585.69;;;10.30;52.96
59409;BME280;45213;32.654;-115.458;2023-02-26T09:20:08;101580.34;;;10.25;53.45
59409;BME280;45213;32.654;-115.458;2023-02-26T09:22:35;101567.38;;;10.27;54.29
59409;BME280;45213;32.654;-115.458;2023-02-26T09:25:03;101568.16;;;10.24;55.63
59409;BME280;45213;32.654;-115.458;2023-02-26T09:27:29;101570.00;;;10.28;56.19
59409;BME280;45213;32.654;-115.458;2023-02-26T09:29:56;101538.75;;;10.27;55.09
59409;BME280;45213;32.654;-115.458;2023-02-26T09:32:22;101540.72;;;10.37;54.87
59409;BME280;45213;32.654;-115.458;2023-02-26T09:34:51;101540.97;;;10.48;54.74
59409;BME280;45213;32.654;-115.458;2023-02-26T09:37:18;101528.03;;;10.52;54.79
59409;BME280;45213;32.654;-115.458;2023-02-26T09:39:45;101550.69;;;10.56;54.96
59409;BME280;45213;32.654;-115.458;2023-02-26T09:45:40;101561.59;;;10.38;55.05
59409;BME280;45213;32.654;-115.458;2023-02-26T09:48:10;101555.28;;;10.29;55.67
59409;BME280;45213;32.654;-115.458;2023-02-26T09:55:42;101553.16;;;10.12;57.52
59409;BME280;45213;32.654;-115.458;2023-02-26T09:58:31;101553.25;;;10.17;56.92
59409;BME280;45213;32.654;-115.458;2023-02-26T10:19:44;101488.66;;;9.99;55.30
59409;BME280;45213;32.654;-115.458;2023-02-26T10:22:37;101494.75;;;9.99;55.09
59409;BME280;45213;32.654;-115.458;2023-02-26T10:25:19;101498.13;;;9.97;55.50
59409;BME280;45213;32.654;-115.458;2023-02-26T10:27:49;101493.09;;;10.03;55.70
59409;BME280;45213;32.654;-115.458;2023-02-26T10:30:27;101493.06;;;10.01;55.16
59409;BME280;45213;32.654;-115.458;2023-02-26T10:33:11;101499.69;;;9.89;53.45
59409;BME280;45213;32.654;-115.458;2023-02-26T10:35:51;101501.53;;;9.93;51.73
59409;BME280;45213;32.654;-115.458;2023-02-26T10:38:24;101488.75;;;10.02;50.70
59409;BME280;45213;32.654;-115.458;2023-02-26T10:43:34;101465.66;;;10.17;49.58
59409;BME280;45213;32.654;-115.458;2023-02-26T10:52:14;101532.94;;;10.00;50.15
59409;BME280;45213;32.654;-115.458;2023-02-26T10:57:35;101539.50;;;9.85;49.42
59409;BME280;45213;32.654;-115.458;2023-02-26T11:00:06;101526.53;;;9.86;49.72
59409;BME280;45213;32.654;-115.458;2023-02-26T11:05:05;101515.00;;;9.75;50.81
59409;BME280;45213;32.654;-115.458;2023-02-26T11:07:35;101504.31;;;9.64;51.52
59409;BME280;45213;32.654;-115.458;2023-02-26T11:10:03;101518.06;;;9.60;51.90
59409;BME280;45213;32.654;-115.458;2023-02-26T11:12:31;101508.31;;;9.51;52.28
59409;BME280;45213;32.654;-115.458;2023-02-26T11:14:59;101528.38;;;9.55;52.80
59409;BME280;45213;32.654;-115.458;2023-02-26T11:17:28;101509.88;;;9.45;53.21
59409;BME280;45213;32.654;-115.458;2023-02-26T11:20:04;101501.09;;;9.38;53.93
59409;BME280;45213;32.654;-115.458;2023-02-26T11:22:46;101506.16;;;9.33;54.59
59409;BME280;45213;32.654;-115.458;2023-02-26T11:25:17;101538.88;;;9.25;55.03
59409;BME280;45213;32.654;-115.458;2023-02-26T11:27:48;101537.19;;;9.27;55.13
59409;BME280;45213;32.654;-115.458;2023-02-26T11:30:20;101540.84;;;9.35;54.96
59409;BME280;45213;32.654;-115.458;2023-02-26T11:32:51;101548.63;;;9.34;55.19
59409;BME280;45213;32.654;-115.458;2023-02-26T11:35:21;101552.16;;;9.36;55.07
59409;BME280;45213;32.654;-115.458;2023-02-26T11:37:53;101553.09;;;9.39;55.00
59409;BME280;45213;32.654;-115.458;2023-02-26T11:40:36;101549.56;;;9.37;54.63
59409;BME280;45213;32.654;-115.458;2023-02-26T11:43:12;101541.75;;;9.36;54.46
59409;BME280;45213;32.654;-115.458;2023-02-26T11:45:42;101546.97;;;9.37;54.86
59409;BME280;45213;32.654;-115.458;2023-02-26T11:48:22;101547.47;;;9.24;54.56
59409;BME280;45213;32.654;-115.458;2023-02-26T11:50:54;101547.66;;;9.30;54.41
59409;BME280;45213;32.654;-115.458;2023-02-26T11:53:29;101551.09;;;9.29;54.35
59409;BME280;45213;32.654;-115.458;2023-02-26T11:56:02;101546.06;;;9.35;53.83
59409;BME280;45213;32.654;-115.458;2023-02-26T11:58:36;101539.16;;;9.37;53.71
59409;BME280;45213;32.654;-115.458;2023-02-26T12:01:05;101538.94;;;9.28;53.52
59409;BME280;45213;32.654;-115.458;2023-02-26T12:03:35;101554.47;;;9.25;54.00
59409;BME280;45213;32.654;-115.458;2023-02-26T12:06:05;101551.50;;;9.13;53.93
59409;BME280;45213;32.654;-115.458;2023-02-26T12:08:34;101578.41;;;9.15;53.71
59409;BME280;45213;32.654;-115.458;2023-02-26T12:14:17;101571.69;;;9.22;52.56
59409;BME280;45213;32.654;-115.458;2023-02-26T12:17:20;101586.19;;;9.13;53.30
59409;BME280;45213;32.654;-115.458;2023-02-26T12:23:03;101580.09;;;9.13;53.80
59409;BME280;45213;32.654;-115.458;2023-02-26T12:40:33;101626.25;;;8.91;55.96
59409;BME280;45213;32.654;-115.458;2023-02-26T12:43:15;101629.78;;;8.93;55.81
59409;BME280;45213;32.654;-115.458;2023-02-26T12:49:00;101620.09;;;8.88;56.23
59409;BME280;45213;32.654;-115.458;2023-02-26T12:56:56;101650.06;;;8.76;57.04
59409;BME280;45213;32.654;-115.458;2023-02-26T13:02:36;101655.94;;;8.71;57.07
59409;BME280;45213;32.654;-115.458;2023-02-26T13:13:52;101666.41;;;8.74;56.92
59409;BME280;45213;32.654;-115.458;2023-02-26T13:19:29;101665.31;;;8.66;57.41
59409;BME280;45213;32.654;-115.458;2023-02-26T13:22:28;101676.38;;;8.60;58.02
59409;BME280;45213;32.654;-115.458;2023-02-26T13:25:07;101687.34;;;8.50;57.93
59409;BME280;45213;32.654;-115.458;2023-02-26T13:27:42;101688.19;;;8.50;57.78
59409;BME280;45213;32.654;-115.458;2023-02-26T13:33:16;101669.66;;;8.67;57.09
59409;BME280;45213;32.654;-115.458;2023-02-26T13:35:44;101676.66;;;8.69;56.70
59409;BME280;45213;32.654;-115.458;2023-02-26T13:51:42;101679.53;;;8.50;57.27
59409;BME280;45213;32.654;-115.458;2023-02-26T14:05:06;101716.47;;;8.68;57.97
59409;BME280;45213;32.654;-115.458;2023-02-26T14:07:48;101722.19;;;8.58;57.51
59409;BME280;45213;32.654;-115.458;2023-02-26T14:13:17;101727.09;;;8.49;57.32
59409;BME280;45213;32.654;-115.458;2023-02-26T14:23:55;101761.81;;;8.52;57.85
59409;BME280;45213;32.654;-115.458;2023-02-26T14:26:24;101760.34;;;8.61;57.13
59409;BME280;45213;32.654;-115.458;2023-02-26T14:31:25;101775.19;;;9.48;54.76
59409;BME280;45213;32.654;-115.458;2023-02-26T14:34:42;101777.72;;;9.76;53.29
59409;BME280;45213;32.654;-115.458;2023-02-26T14:36:54;101778.34;;;10.64;50.88
59409;BME280;45213;32.654;-115.458;2023-02-26T14:39:33;101779.09;;;11.77;47.35
59409;BME280;45213;32.654;-115.458;2023-02-26T14:42:07;101767.50;;;12.56;44.74
59409;BME280;45213;32.654;-115.458;2023-02-26T14:44:44;101782.84;;;13.47;41.75
59409;BME280;45213;32.654;-115.458;2023-02-26T14:47:11;101775.88;;;14.25;40.35
59409;BME280;45213;32.654;-115.458;2023-02-26T14:49:41;101779.84;;;14.76;38.78
59409;BME280;45213;32.654;-115.458;2023-02-26T14:55:07;101785.81;;;16.36;35.69
59409;BME280;45213;32.654;-115.458;2023-02-26T15:00:37;101816.38;;;17.59;32.99
59409;BME280;45213;32.654;-115.458;2023-02-26T15:26:02;101856.53;;;18.21;31.13
59409;BME280;45213;32.654;-115.458;2023-02-26T15:28:35;101867.72;;;15.41;35.00
59409;BME280;45213;32.654;-115.458;2023-02-26T15:31:05;101870.34;;;13.12;40.33
59409;BME280;45213;32.654;-115.458;2023-02-26T15:33:33;101866.66;;;12.48;42.60
59409;BME280;45213;32.654;-115.458;2023-02-26T15:36:03;101878.56;;;11.89;44.25
59409;BME280;45213;32.654;-115.458;2023-02-26T15:38:45;101874.25;;;11.90;44.42
59409;BME280;45213;32.654;-115.458;2023-02-26T15:41:13;101872.28;;;11.83;44.28
59409;BME280;45213;32.654;-115.458;2023-02-26T15:43:47;101872.84;;;11.68;44.49
59409;BME280;45213;32.654;-115.458;2023-02-26T15:46:14;101873.66;;;12.05;44.13
59409;BME280;45213;32.654;-115.458;2023-02-26T15:48:42;101880.66;;;12.06;44.61
59409;BME280;45213;32.654;-115.458;2023-02-26T15:51:11;101884.09;;;12.05;44.26
59409;BME280;45213;32.654;-115.458;2023-02-26T15:53:45;101892.47;;;12.32;43.64